This is the latest recevied weather packets stored in our database for station/object KE5VT. If no packets are shown the sender has not sent any weather packets the latest 10 day(s).
| Time | Temp. | Humidity | Pressure | Rain* | Wind** | Luminosity | Snow |
|---|---|---|---|---|---|---|---|
| 1787871729 | 28.89° C | 75% | 1010.4 hPa | 0 mm | - | 25 W/m² | - |
| 1787871424 | 28.89° C | 73% | 1010.3 hPa | 0 mm | - | 27 W/m² | - |
| 1787871119 | 28.89° C | 72% | 1010.2 hPa | 0 mm | - | 29 W/m² | - |
| 1787870818 | 28.89° C | 74% | 1010.3 hPa | 0 mm | - | 30 W/m² | - |
| 1787870513 | 28.89° C | 73% | 1010.2 hPa | 0 mm | - | 30 W/m² | - |
| 1787870209 | 29.44° C | 72% | 1010.1 hPa | 0 mm | - | 38 W/m² | - |
| 1787869904 | 29.44° C | 72% | 1010.2 hPa | 0 mm | - | 49 W/m² | - |
| 1787869602 | 30° C | 71% | 1009.9 hPa | 0 mm | - | 64 W/m² | - |
| 1787869298 | 30° C | 71% | 1010.2 hPa | 0 mm | - | 65 W/m² | - |
| 1787868996 | 30° C | 70% | 1010.2 hPa | 0 mm | - | 59 W/m² | - |
| 1787868696 | 30° C | 69% | 1010.1 hPa | 0 mm | - | 47 W/m² | - |
| 1787868394 | 30° C | 68% | 1010.1 hPa | 0 mm | - | 44 W/m² | - |
| 1787868090 | 30.56° C | 67% | 1010 hPa | 0 mm | - | 77 W/m² | - |
| 1787867790 | 31.11° C | 65% | 1009.8 hPa | 0 mm | - | 159 W/m² | - |
| 1787867486 | 30.56° C | 67% | 1009.8 hPa | 0 mm | - | 249 W/m² | - |
| 1787867180 | 30.56° C | 68% | 1009.8 hPa | 0 mm | - | 139 W/m² | - |
| 1787866876 | 30.56° C | 67% | 1009.9 hPa | 0 mm | - | 89 W/m² | - |
| 1787866571 | 30.56° C | 67% | 1009.9 hPa | 0 mm | - | 109 W/m² | - |
| 1787866269 | 30.56° C | 69% | 1009.8 hPa | 0 mm | - | 148 W/m² | - |
| 1787865964 | 30.56° C | 67% | 1009.8 hPa | 0 mm | - | 141 W/m² | - |
| 1787865660 | 30.56° C | 66% | 1010 hPa | 0 mm | - | 78 W/m² | - |
| 1787865359 | 30.56° C | 68% | 1009.8 hPa | 0 mm | - | 71 W/m² | - |
| 1787865055 | 31.11° C | 68% | 1009.9 hPa | 0 mm | - | 79 W/m² | - |
| 1787864750 | 31.67° C | 65% | 1010 hPa | 0 mm | - | 87 W/m² | - |
| 1787864450 | 31.11° C | 66% | 1010.1 hPa | 0 mm | - | 109 W/m² | - |
* Rain latest hour (hover to see other rain measurements)
** Current wind speed in m/s (hover to see current wind gust speed)